Time;durP1;ratioP1;P1;durP2;ratioP2;P2;SDS_P1;SDS_P2;PMS_P1;PMS_P2;Temp;Humidity;BMP_temperature;BMP_pressure;BME280_temperature;BME280_humidity;BME280_pressure;Samples;Min_cycle;Max_cycle;Signal;HPM_P1;HPM_P2
2022/05/14 00:01:58;;;;;;;24.88;6.72;;;;;;;;;;5011334;28;20038;-62
2022/05/14 00:04:24;;;;;;;28.55;7.40;;;;;;;;;;5018784;28;20049;-63
2022/05/14 00:06:51;;;;;;;33.95;7.32;;;;;;;;;;5012000;28;20045;-63
2022/05/14 00:09:17;;;;;;;30.05;7.72;;;;;;;;;;5012346;28;20041;-63
2022/05/14 00:14:28;;;;;;;27.88;7.70;;;;;;;;;;5010865;28;20065;-63
2022/05/14 00:16:55;;;;;;;32.92;8.02;;;;;;;;;;5013293;28;20052;-62
2022/05/14 00:19:22;;;;;;;37.20;8.70;;;;;;;;;;5015641;28;20053;-63
2022/05/14 00:21:48;;;;;;;28.85;7.50;;;;;;;;;;5016550;28;20050;-63
2022/05/14 00:24:15;;;;;;;36.13;7.80;;;;;;;;;;5017626;28;20069;-63
2022/05/14 00:26:41;;;;;;;27.75;7.55;;;;;;;;;;5015789;28;20322;-63
2022/05/14 00:29:08;;;;;;;46.40;9.98;;;;;;;;;;5013527;28;20046;-63
2022/05/14 00:31:34;;;;;;;35.63;9.27;;;;;;;;;;5009137;28;20106;-63
2022/05/14 00:34:00;;;;;;;40.28;9.18;;;;;;;;;;5014084;28;20469;-63
2022/05/14 00:36:27;;;;;;;54.13;9.43;;;;;;;;;;5010964;28;20398;-62
2022/05/14 00:38:54;;;;;;;43.58;9.43;;;;;;;;;;5013021;28;20576;-62
2022/05/14 00:41:20;;;;;;;32.78;8.50;;;;;;;;;;4997549;28;20053;-63
2022/05/14 00:43:48;;;;;;;33.00;8.07;;;;;;;;;;5014677;28;20045;-62
2022/05/14 00:46:16;;;;;;;41.72;9.10;;;;;;;;;;5019273;28;20099;-63
2022/05/14 00:48:44;;;;;;;45.47;10.15;;;;;;;;;;5020923;28;20501;-62
2022/05/14 00:51:16;;;;;;;35.75;8.50;;;;;;;;;;5006333;28;20224;-62
2022/05/14 00:53:44;;;;;;;42.58;8.93;;;;;;;;;;5017211;28;20099;-63
2022/05/14 00:56:12;;;;;;;50.30;11.45;;;;;;;;;;5016230;28;20124;-62
2022/05/14 00:58:43;;;;;;;45.85;10.30;;;;;;;;;;5014739;28;20088;-62
2022/05/14 01:01:09;;;;;;;65.53;11.90;;;;;;;;;;5016463;28;20128;-63
2022/05/14 01:03:35;;;;;;;45.88;9.30;;;;;;;;;;5004351;28;20132;-63
2022/05/14 01:06:03;;;;;;;46.20;10.95;;;;;;;;;;5019488;28;20057;-63
2022/05/14 01:08:30;;;;;;;39.97;8.95;;;;;;;;;;5015708;28;20042;-63
2022/05/14 01:10:57;;;;;;;44.88;10.70;;;;;;;;;;5012651;28;20041;-63
2022/05/14 01:13:23;;;;;;;51.70;10.52;;;;;;;;;;5021088;28;20120;-63
2022/05/14 01:15:52;;;;;;;41.70;10.70;;;;;;;;;;5010555;28;20046;-62
2022/05/14 01:18:20;;;;;;;43.58;10.35;;;;;;;;;;5012799;28;20095;-62
2022/05/14 01:21:02;;;;;;;44.33;10.35;;;;;;;;;;5014219;28;20477;-63
2022/05/14 01:26:28;;;;;;;40.42;8.57;;;;;;;;;;5010898;28;20805;-63
2022/05/14 01:28:56;;;;;;;41.80;9.90;;;;;;;;;;5013788;28;20414;-63
2022/05/14 01:31:22;;;;;;;35.17;9.07;;;;;;;;;;5013583;28;20038;-63
2022/05/14 01:33:49;;;;;;;42.08;10.98;;;;;;;;;;5013086;28;20089;-63
2022/05/14 01:36:15;;;;;;;32.63;8.77;;;;;;;;;;5014786;28;20057;-63
2022/05/14 01:38:41;;;;;;;46.17;10.13;;;;;;;;;;5002825;28;20042;-62
2022/05/14 01:41:09;;;;;;;34.95;8.27;;;;;;;;;;5012252;28;20053;-63
2022/05/14 01:43:36;;;;;;;39.95;8.93;;;;;;;;;;4999262;28;20073;-63
2022/05/14 01:46:02;;;;;;;39.90;9.68;;;;;;;;;;5010655;28;20053;-63
2022/05/14 01:48:28;;;;;;;30.05;8.57;;;;;;;;;;5014716;28;20093;-63
2022/05/14 01:50:54;;;;;;;37.58;9.77;;;;;;;;;;5014546;28;20469;-63
2022/05/14 01:53:20;;;;;;;30.70;7.85;;;;;;;;;;5013372;28;20498;-62
2022/05/14 01:55:47;;;;;;;37.08;9.20;;;;;;;;;;5013987;28;20046;-63
2022/05/14 02:00:57;;;;;;;40.20;8.18;;;;;;;;;;5011218;28;20046;-62
2022/05/14 02:03:24;;;;;;;34.78;9.60;;;;;;;;;;5013661;28;20127;-63
2022/05/14 02:05:50;;;;;;;35.63;9.23;;;;;;;;;;5017658;28;20363;-62
2022/05/14 02:08:16;;;;;;;39.75;9.77;;;;;;;;;;5012838;28;20129;-63
2022/05/14 02:10:42;;;;;;;40.10;11.90;;;;;;;;;;4996754;28;20489;-63
2022/05/14 02:13:10;;;;;;;35.22;10.90;;;;;;;;;;5010134;28;20042;-62
2022/05/14 02:15:36;;;;;;;40.92;10.45;;;;;;;;;;5015898;28;20034;-63
2022/05/14 02:18:02;;;;;;;34.08;10.20;;;;;;;;;;5013149;28;20067;-63
2022/05/14 02:20:30;;;;;;;28.80;9.32;;;;;;;;;;5012315;28;20124;-63
2022/05/14 02:22:56;;;;;;;43.03;9.93;;;;;;;;;;5014672;28;20052;-61
2022/05/14 02:25:22;;;;;;;49.33;10.70;;;;;;;;;;5010808;28;20045;-63
2022/05/14 02:27:48;;;;;;;33.05;10.68;;;;;;;;;;4996153;28;20056;-62
2022/05/14 02:30:15;;;;;;;36.60;11.00;;;;;;;;;;5013449;28;21797;-62
2022/05/14 02:32:41;;;;;;;43.00;11.63;;;;;;;;;;5012402;28;20045;-63
2022/05/14 02:35:07;;;;;;;39.25;10.55;;;;;;;;;;5011413;28;20045;-62
2022/05/14 02:37:34;;;;;;;38.45;9.85;;;;;;;;;;5013957;28;20040;-63
2022/05/14 02:40:00;;;;;;;38.28;10.40;;;;;;;;;;5010209;28;20052;-63
2022/05/14 02:42:26;;;;;;;35.65;9.43;;;;;;;;;;5012303;28;20086;-63
2022/05/14 02:44:52;;;;;;;43.45;11.20;;;;;;;;;;5010705;28;20513;-63
2022/05/14 02:47:19;;;;;;;53.92;12.93;;;;;;;;;;5009844;28;20056;-63
2022/05/14 02:49:45;;;;;;;39.47;10.48;;;;;;;;;;5012538;28;20071;-62
2022/05/14 02:52:11;;;;;;;40.17;10.48;;;;;;;;;;5014377;28;20056;-62
2022/05/14 02:54:38;;;;;;;39.05;11.65;;;;;;;;;;5003421;28;20041;-62
2022/05/14 02:57:05;;;;;;;40.90;11.43;;;;;;;;;;5010512;28;20073;-63
2022/05/14 02:59:31;;;;;;;38.90;10.55;;;;;;;;;;5014863;28;20037;-63
2022/05/14 03:01:57;;;;;;;40.47;10.95;;;;;;;;;;4995558;28;20072;-62
2022/05/14 03:04:25;;;;;;;37.17;9.75;;;;;;;;;;5011854;28;20050;-63
2022/05/14 03:06:52;;;;;;;36.42;10.68;;;;;;;;;;5013380;28;20051;-62
2022/05/14 03:09:18;;;;;;;30.90;9.27;;;;;;;;;;5017593;28;20205;-63
2022/05/14 03:11:44;;;;;;;35.72;11.35;;;;;;;;;;5009797;28;20041;-63
2022/05/14 03:14:11;;;;;;;47.55;11.55;;;;;;;;;;5015932;28;20160;-62
2022/05/14 03:16:38;;;;;;;38.80;11.75;;;;;;;;;;5012001;28;20057;-63
2022/05/14 03:19:04;;;;;;;39.38;11.55;;;;;;;;;;5011572;28;20500;-62
2022/05/14 03:21:30;;;;;;;54.03;12.77;;;;;;;;;;5012304;28;20073;-62
2022/05/14 03:23:56;;;;;;;41.85;11.35;;;;;;;;;;5013744;28;20041;-63
2022/05/14 03:26:22;;;;;;;43.53;11.32;;;;;;;;;;5010606;28;20050;-63
2022/05/14 03:28:48;;;;;;;59.63;13.38;;;;;;;;;;5014326;28;20046;-63
2022/05/14 03:31:15;;;;;;;57.70;13.43;;;;;;;;;;4999451;28;20153;-63
2022/05/14 03:33:41;;;;;;;56.88;14.13;;;;;;;;;;5007585;28;20057;-63
2022/05/14 03:36:08;;;;;;;44.53;12.80;;;;;;;;;;5020115;28;20050;-63
2022/05/14 03:38:35;;;;;;;51.10;13.30;;;;;;;;;;5010953;28;20413;-63
2022/05/14 03:41:01;;;;;;;44.92;12.75;;;;;;;;;;5010655;28;20038;-63
2022/05/14 03:43:27;;;;;;;43.70;11.57;;;;;;;;;;5014144;28;20044;-62
2022/05/14 03:45:54;;;;;;;42.63;11.10;;;;;;;;;;5009162;28;20045;-62
2022/05/14 03:48:20;;;;;;;43.17;11.50;;;;;;;;;;5006088;28;20087;-63
2022/05/14 03:50:46;;;;;;;39.10;11.27;;;;;;;;;;5011306;28;20045;-63
2022/05/14 03:53:13;;;;;;;48.40;11.73;;;;;;;;;;5009450;28;20038;-63
2022/05/14 03:55:39;;;;;;;47.22;11.25;;;;;;;;;;5014289;28;20405;-63
2022/05/14 03:58:05;;;;;;;45.72;11.35;;;;;;;;;;5011152;28;20069;-62
2022/05/14 04:00:31;;;;;;;35.45;10.63;;;;;;;;;;5010986;28;20054;-63
2022/05/14 04:02:57;;;;;;;43.00;11.85;;;;;;;;;;4998142;28;20456;-63
2022/05/14 04:05:24;;;;;;;36.15;10.35;;;;;;;;;;5017356;28;20497;-62
2022/05/14 04:07:50;;;;;;;34.72;8.85;;;;;;;;;;5014424;28;20493;-63
2022/05/14 04:10:16;;;;;;;34.78;11.82;;;;;;;;;;5008979;28;20053;-62
2022/05/14 04:12:43;;;;;;;37.35;12.20;;;;;;;;;;5016501;28;20173;-62
2022/05/14 04:15:11;;;;;;;38.45;12.30;;;;;;;;;;5014562;28;20485;-63
2022/05/14 04:17:37;;;;;;;36.83;11.80;;;;;;;;;;4998153;28;20056;-63
2022/05/14 04:20:03;;;;;;;34.55;10.55;;;;;;;;;;5015370;28;20084;-63
2022/05/14 04:22:30;;;;;;;29.58;10.95;;;;;;;;;;5010155;28;20523;-62
2022/05/14 04:24:56;;;;;;;29.60;10.02;;;;;;;;;;5017328;28;20044;-63
2022/05/14 04:27:22;;;;;;;27.55;9.48;;;;;;;;;;5013335;28;20596;-63
2022/05/14 04:29:48;;;;;;;35.47;11.07;;;;;;;;;;5013773;28;20052;-62
2022/05/14 04:32:15;;;;;;;37.05;10.95;;;;;;;;;;5016874;28;20747;-62
2022/05/14 04:34:41;;;;;;;38.35;12.73;;;;;;;;;;5016602;28;20973;-62
2022/05/14 04:37:08;;;;;;;36.20;12.85;;;;;;;;;;5017735;28;20516;-62
2022/05/14 04:39:36;;;;;;;34.35;12.20;;;;;;;;;;5012888;28;20045;-63
2022/05/14 04:42:03;;;;;;;33.35;10.07;;;;;;;;;;5011623;28;20050;-62
2022/05/14 04:44:30;;;;;;;46.05;11.55;;;;;;;;;;5015927;28;20065;-62
2022/05/14 04:46:56;;;;;;;37.80;10.52;;;;;;;;;;5011204;28;20049;-63
2022/05/14 04:49:22;;;;;;;38.53;10.68;;;;;;;;;;5013522;28;20041;-62
2022/05/14 04:51:48;;;;;;;27.23;9.65;;;;;;;;;;5017078;28;20073;-62
2022/05/14 04:54:15;;;;;;;30.20;9.60;;;;;;;;;;5012394;28;20050;-63
2022/05/14 04:56:42;;;;;;;34.63;10.52;;;;;;;;;;5011006;28;20136;-63
2022/05/14 04:59:08;;;;;;;36.65;10.57;;;;;;;;;;5015387;28;20393;-62
2022/05/14 05:01:34;;;;;;;42.22;12.50;;;;;;;;;;5014903;28;20687;-63
2022/05/14 05:04:00;;;;;;;52.13;13.30;;;;;;;;;;5016266;28;20060;-62
2022/05/14 05:06:27;;;;;;;50.83;11.98;;;;;;;;;;5011500;28;20128;-62
2022/05/14 05:08:53;;;;;;;39.67;11.75;;;;;;;;;;4989653;28;20476;-62
2022/05/14 05:11:20;;;;;;;39.70;11.57;;;;;;;;;;5015643;28;20076;-63
2022/05/14 05:13:46;;;;;;;42.80;11.43;;;;;;;;;;5014771;28;20100;-62
2022/05/14 05:16:12;;;;;;;43.28;12.77;;;;;;;;;;5012822;28;20041;-62
2022/05/14 05:18:38;;;;;;;47.70;12.25;;;;;;;;;;5011945;28;20041;-63
2022/05/14 05:21:06;;;;;;;36.97;11.23;;;;;;;;;;5012970;28;20096;-63
2022/05/14 05:23:33;;;;;;;44.08;11.45;;;;;;;;;;5016684;28;20129;-63
2022/05/14 05:26:00;;;;;;;42.45;10.50;;;;;;;;;;5010194;28;20172;-63
2022/05/14 05:28:27;;;;;;;38.47;11.85;;;;;;;;;;5016730;28;20476;-63
2022/05/14 05:30:53;;;;;;;47.15;12.90;;;;;;;;;;4995426;28;20069;-62
2022/05/14 05:33:20;;;;;;;43.65;12.27;;;;;;;;;;5016764;28;20049;-62
2022/05/14 05:35:47;;;;;;;41.83;11.25;;;;;;;;;;5010662;28;20450;-62
2022/05/14 05:38:13;;;;;;;48.85;11.52;;;;;;;;;;5013853;28;20117;-62
2022/05/14 05:40:39;;;;;;;44.85;11.38;;;;;;;;;;5003075;28;20058;-62
2022/05/14 05:43:07;;;;;;;33.85;10.18;;;;;;;;;;5012631;28;20165;-62
2022/05/14 05:45:33;;;;;;;39.10;11.00;;;;;;;;;;4996416;28;20151;-63
2022/05/14 05:47:59;;;;;;;38.40;10.07;;;;;;;;;;5012323;28;20041;-62
2022/05/14 05:50:26;;;;;;;48.45;10.70;;;;;;;;;;4999413;28;20042;-62
2022/05/14 05:52:54;;;;;;;46.17;10.43;;;;;;;;;;5015723;28;20477;-63
2022/05/14 05:58:06;;;;;;;36.05;9.20;;;;;;;;;;5012895;28;20041;-62
2022/05/14 06:00:33;;;;;;;45.55;9.30;;;;;;;;;;5014258;28;20100;-63
2022/05/14 06:02:59;;;;;;;39.08;7.03;;;;;;;;;;5011377;28;20034;-62
2022/05/14 06:05:26;;;;;;;29.48;7.10;;;;;;;;;;5009787;28;20049;-62
2022/05/14 06:07:53;;;;;;;36.53;7.53;;;;;;;;;;5011150;28;20038;-63
2022/05/14 06:10:20;;;;;;;31.23;6.35;;;;;;;;;;5010346;28;20045;-63
2022/05/14 06:12:46;;;;;;;37.92;7.25;;;;;;;;;;5016352;28;20038;-63
2022/05/14 06:15:14;;;;;;;28.90;6.15;;;;;;;;;;5011640;28;20053;-63
2022/05/14 06:17:41;;;;;;;40.17;8.73;;;;;;;;;;5012885;28;20046;-62
2022/05/14 06:20:09;;;;;;;40.28;6.40;;;;;;;;;;5008936;28;20045;-63
2022/05/14 06:22:36;;;;;;;29.77;7.47;;;;;;;;;;5011126;28;20124;-63
2022/05/14 06:25:03;;;;;;;30.15;6.90;;;;;;;;;;5012305;28;20046;-63
2022/05/14 06:27:29;;;;;;;32.65;7.78;;;;;;;;;;5011000;28;20071;-63
2022/05/14 06:29:55;;;;;;;36.67;6.85;;;;;;;;;;5013375;28;20485;-63
2022/05/14 06:32:21;;;;;;;25.73;6.05;;;;;;;;;;5012489;28;20462;-63
2022/05/14 06:34:48;;;;;;;30.17;6.35;;;;;;;;;;5016028;28;20058;-63
2022/05/14 06:37:14;;;;;;;23.92;5.40;;;;;;;;;;5015912;28;21220;-62
2022/05/14 06:39:40;;;;;;;26.75;5.78;;;;;;;;;;4996429;28;20483;-63
2022/05/14 06:42:07;;;;;;;27.85;6.15;;;;;;;;;;5017624;28;20481;-63
2022/05/14 06:44:33;;;;;;;28.75;6.28;;;;;;;;;;5011731;28;20461;-63
2022/05/14 06:46:59;;;;;;;29.92;6.35;;;;;;;;;;4988403;28;20057;-63
2022/05/14 06:49:26;;;;;;;28.58;5.90;;;;;;;;;;5015571;28;20128;-63
2022/05/14 06:51:53;;;;;;;25.80;5.43;;;;;;;;;;5014612;28;20505;-63
2022/05/14 06:54:20;;;;;;;25.65;6.68;;;;;;;;;;5015380;28;20129;-63
2022/05/14 06:56:46;;;;;;;24.23;6.53;;;;;;;;;;5010135;28;20042;-63
2022/05/14 06:59:14;;;;;;;31.00;6.85;;;;;;;;;;5016223;28;20046;-63
2022/05/14 07:01:41;;;;;;;33.28;7.70;;;;;;;;;;5017276;28;20042;-63
2022/05/14 07:06:54;;;;;;;32.13;7.70;;;;;;;;;;5016898;28;20047;-62
2022/05/14 07:09:23;;;;;;;29.20;5.95;;;;;;;;;;5013962;28;20140;-63
2022/05/14 07:11:50;;;;;;;21.33;4.80;;;;;;;;;;5012121;28;20041;-62
2022/05/14 07:14:16;;;;;;;27.75;5.55;;;;;;;;;;5015888;28;20374;-63
2022/05/14 07:16:43;;;;;;;27.98;6.45;;;;;;;;;;5019158;28;20041;-63
2022/05/14 07:19:09;;;;;;;26.45;5.85;;;;;;;;;;5001786;28;20053;-63
2022/05/14 07:21:36;;;;;;;28.73;5.25;;;;;;;;;;5019616;28;20744;-63
2022/05/14 07:24:06;;;;;;;24.73;6.28;;;;;;;;;;5018338;28;20049;-63
2022/05/14 07:26:34;;;;;;;24.10;5.82;;;;;;;;;;5014355;28;20072;-63
2022/05/14 07:29:00;;;;;;;23.45;5.05;;;;;;;;;;5011444;28;20057;-62
2022/05/14 07:31:27;;;;;;;24.55;5.13;;;;;;;;;;5014084;28;20037;-62
2022/05/14 07:33:53;;;;;;;27.73;5.32;;;;;;;;;;4998621;28;20132;-62
2022/05/14 07:36:20;;;;;;;22.20;5.43;;;;;;;;;;5018380;28;20905;-62
2022/05/14 07:38:47;;;;;;;24.45;5.35;;;;;;;;;;5017696;28;20063;-62
2022/05/14 07:41:13;;;;;;;18.90;4.97;;;;;;;;;;5017809;28;20050;-63
2022/05/14 07:43:42;;;;;;;24.48;5.28;;;;;;;;;;5016487;28;20164;-63
2022/05/14 07:46:11;;;;;;;17.17;5.72;;;;;;;;;;5012641;28;20053;-63
2022/05/14 07:48:38;;;;;;;26.70;5.82;;;;;;;;;;5013881;28;20161;-62
2022/05/14 07:51:05;;;;;;;20.77;4.63;;;;;;;;;;5013436;28;20090;-63
2022/05/14 07:53:32;;;;;;;21.02;5.38;;;;;;;;;;5016131;28;20034;-63
2022/05/14 07:55:59;;;;;;;21.10;4.70;;;;;;;;;;5024172;28;20053;-63
2022/05/14 07:58:25;;;;;;;24.80;4.88;;;;;;;;;;5015989;28;20133;-62
2022/05/14 08:00:52;;;;;;;21.65;5.35;;;;;;;;;;5018238;28;20048;-62
2022/05/14 08:03:18;;;;;;;24.38;5.88;;;;;;;;;;5014398;28;20046;-62
2022/05/14 08:05:44;;;;;;;27.75;5.25;;;;;;;;;;4991670;28;20120;-62
2022/05/14 08:08:11;;;;;;;20.63;5.57;;;;;;;;;;5003200;28;20503;-63
2022/05/14 08:10:37;;;;;;;24.77;5.28;;;;;;;;;;5022527;28;20137;-63
2022/05/14 08:13:04;;;;;;;21.73;5.38;;;;;;;;;;5015430;28;20355;-62
2022/05/14 08:15:30;;;;;;;21.55;5.72;;;;;;;;;;5021708;28;20653;-62
2022/05/14 08:17:56;;;;;;;27.38;5.30;;;;;;;;;;5006716;28;20073;-62
2022/05/14 08:20:23;;;;;;;31.20;6.07;;;;;;;;;;5021363;28;20378;-62
2022/05/14 08:25:34;;;;;;;26.92;5.88;;;;;;;;;;5023516;28;20042;-62
2022/05/14 08:28:00;;;;;;;28.80;5.53;;;;;;;;;;5024256;28;20038;-62
2022/05/14 08:30:28;;;;;;;22.02;5.97;;;;;;;;;;5018780;28;20176;-63
2022/05/14 08:32:55;;;;;;;24.02;5.65;;;;;;;;;;5021285;28;20054;-62
2022/05/14 08:35:22;;;;;;;25.77;5.57;;;;;;;;;;5021794;28;20046;-62
2022/05/14 08:37:50;;;;;;;26.90;6.57;;;;;;;;;;5024085;28;20041;-62
2022/05/14 08:40:19;;;;;;;31.48;5.63;;;;;;;;;;5023720;28;20056;-62
2022/05/14 08:42:51;;;;;;;23.27;5.70;;;;;;;;;;5012752;28;20060;-63
2022/05/14 08:45:18;;;;;;;27.33;5.68;;;;;;;;;;5013743;28;20156;-62
2022/05/14 08:47:48;;;;;;;23.70;5.72;;;;;;;;;;4999393;28;20048;-62
2022/05/14 08:50:15;;;;;;;27.33;5.97;;;;;;;;;;5015380;28;20037;-62
2022/05/14 08:52:42;;;;;;;26.17;5.93;;;;;;;;;;4995760;28;20046;-63
2022/05/14 08:55:10;;;;;;;26.33;5.78;;;;;;;;;;5017731;28;20046;-63
2022/05/14 08:57:42;;;;;;;24.15;5.60;;;;;;;;;;5022585;28;20073;-62
2022/05/14 09:00:09;;;;;;;24.23;5.78;;;;;;;;;;5018192;28;20045;-62
2022/05/14 09:02:38;;;;;;;25.98;5.25;;;;;;;;;;5022794;28;20477;-62
2022/05/14 09:05:06;;;;;;;18.70;5.38;;;;;;;;;;5022147;28;20156;-63
2022/05/14 09:07:32;;;;;;;26.55;5.60;;;;;;;;;;5018489;28;20485;-63
2022/05/14 09:09:59;;;;;;;20.27;5.13;;;;;;;;;;5008443;28;20045;-69
2022/05/14 09:12:28;;;;;;;30.52;6.32;;;;;;;;;;5016993;28;20046;-62
2022/05/14 09:14:56;;;;;;;26.05;6.60;;;;;;;;;;5012533;28;20120;-62
2022/05/14 09:17:24;;;;;;;20.65;5.03;;;;;;;;;;5009488;28;20492;-62
2022/05/14 09:19:51;;;;;;;24.50;6.15;;;;;;;;;;5009443;28;20053;-62
2022/05/14 09:22:18;;;;;;;23.33;6.22;;;;;;;;;;5013035;28;20497;-62
2022/05/14 09:24:47;;;;;;;24.15;5.50;;;;;;;;;;4995832;28;20065;-62
2022/05/14 09:27:20;;;;;;;29.92;6.47;;;;;;;;;;5013351;28;20048;-62
2022/05/14 09:29:47;;;;;;;27.65;6.63;;;;;;;;;;5003958;28;20042;-61
2022/05/14 09:32:26;;;;;;;23.98;5.63;;;;;;;;;;5000523;28;20049;-62
2022/05/14 09:35:02;;;;;;;24.33;6.18;;;;;;;;;;4988777;28;20054;-62
2022/05/14 09:37:28;;;;;;;24.33;5.65;;;;;;;;;;5002790;28;20029;-62
2022/05/14 09:39:57;;;;;;;25.02;5.78;;;;;;;;;;5002839;28;21243;-62
2022/05/14 09:42:25;;;;;;;22.25;5.90;;;;;;;;;;5000196;28;20057;-62
2022/05/14 09:44:52;;;;;;;27.60;6.75;;;;;;;;;;5001185;28;20042;-62
2022/05/14 09:47:26;;;;;;;25.77;5.78;;;;;;;;;;5000313;28;20076;-63
2022/05/14 09:49:59;;;;;;;26.55;5.93;;;;;;;;;;4983528;28;20069;-62
2022/05/14 09:52:26;;;;;;;31.80;7.47;;;;;;;;;;4997865;28;20065;-62
2022/05/14 09:54:53;;;;;;;28.45;5.85;;;;;;;;;;4999520;28;20049;-62
2022/05/14 09:57:38;;;;;;;23.67;7.15;;;;;;;;;;5009556;28;20072;-63
2022/05/14 10:00:13;;;;;;;21.60;6.07;;;;;;;;;;4999006;28;20125;-63
2022/05/14 10:02:48;;;;;;;29.50;6.55;;;;;;;;;;5016102;28;20506;-63
2022/05/14 10:05:14;;;;;;;27.30;7.05;;;;;;;;;;4996200;28;20041;-63
2022/05/14 10:07:44;;;;;;;24.25;6.03;;;;;;;;;;5013181;28;20048;-63
2022/05/14 10:10:33;;;;;;;25.00;6.55;;;;;;;;;;5022214;28;20120;-63
2022/05/14 10:13:05;;;;;;;22.10;5.80;;;;;;;;;;4980452;28;20037;-63
2022/05/14 10:15:36;;;;;;;33.07;6.33;;;;;;;;;;5018347;28;20136;-63
2022/05/14 10:18:11;;;;;;;28.13;6.15;;;;;;;;;;5015904;28;20293;-63
2022/05/14 10:20:52;;;;;;;25.75;6.25;;;;;;;;;;5013982;28;20057;-63
2022/05/14 10:29:11;;;;;;;29.85;6.22;;;;;;;;;;5010139;28;20056;-63
2022/05/14 10:31:44;;;;;;;23.88;6.55;;;;;;;;;;4990881;28;20487;-63
2022/05/14 10:34:15;;;;;;;24.33;5.82;;;;;;;;;;5017771;28;20072;-63
2022/05/14 10:36:53;;;;;;;22.35;6.32;;;;;;;;;;5018195;28;20413;-63
2022/05/14 10:39:24;;;;;;;22.85;5.40;;;;;;;;;;4995650;28;20482;-63
2022/05/14 10:41:53;;;;;;;31.15;7.10;;;;;;;;;;5004226;28;20089;-63
2022/05/14 10:44:19;;;;;;;30.70;6.88;;;;;;;;;;5016988;28;20045;-63
2022/05/14 10:46:47;;;;;;;25.70;6.28;;;;;;;;;;5010805;28;20046;-63
2022/05/14 10:49:21;;;;;;;26.73;6.90;;;;;;;;;;5012775;28;20048;-63
2022/05/14 10:51:49;;;;;;;24.85;6.40;;;;;;;;;;5016392;28;20179;-63
2022/05/14 10:54:16;;;;;;;28.65;6.15;;;;;;;;;;5012118;28;20046;-63
2022/05/14 10:56:54;;;;;;;22.15;5.43;;;;;;;;;;5014456;28;20053;-63
2022/05/14 10:59:35;;;;;;;22.00;6.53;;;;;;;;;;5017713;28;20389;-63
2022/05/14 11:02:13;;;;;;;26.85;6.63;;;;;;;;;;5014056;28;20045;-63
2022/05/14 11:04:39;;;;;;;23.13;6.45;;;;;;;;;;5015503;28;20171;-63
2022/05/14 11:07:07;;;;;;;20.65;6.53;;;;;;;;;;5000668;28;20073;-63
2022/05/14 11:09:39;;;;;;;22.65;5.97;;;;;;;;;;5011453;28;20034;-63
2022/05/14 11:12:08;;;;;;;22.02;6.15;;;;;;;;;;5010617;28;20048;-63
2022/05/14 11:14:40;;;;;;;22.15;6.10;;;;;;;;;;5009922;28;20053;-63
2022/05/14 11:17:16;;;;;;;24.75;6.90;;;;;;;;;;5012347;28;20481;-63
2022/05/14 11:19:42;;;;;;;20.65;6.10;;;;;;;;;;5020110;28;20038;-63
2022/05/14 11:22:18;;;;;;;24.27;6.50;;;;;;;;;;5017429;28;20128;-63
2022/05/14 11:24:44;;;;;;;28.33;6.95;;;;;;;;;;5017766;28;20107;-63
2022/05/14 11:27:14;;;;;;;23.10;6.05;;;;;;;;;;5005176;28;20103;-63
2022/05/14 11:29:52;;;;;;;23.10;5.78;;;;;;;;;;5020499;28;20038;-63
2022/05/14 11:32:20;;;;;;;18.80;5.35;;;;;;;;;;5020151;28;20040;-63
2022/05/14 11:34:57;;;;;;;24.65;6.20;;;;;;;;;;5017731;28;20072;-63
2022/05/14 11:37:28;;;;;;;24.35;6.40;;;;;;;;;;5016670;28;20497;-63
2022/05/14 11:40:04;;;;;;;25.33;6.25;;;;;;;;;;5017698;28;20038;-63
2022/05/14 11:42:31;;;;;;;24.90;6.80;;;;;;;;;;5008148;28;20042;-63
2022/05/14 11:45:01;;;;;;;18.52;5.90;;;;;;;;;;5005276;28;20497;-63
2022/05/14 11:47:32;;;;;;;23.83;6.35;;;;;;;;;;5014208;28;20397;-63
2022/05/14 11:50:00;;;;;;;22.40;6.03;;;;;;;;;;5015286;28;20056;-63
2022/05/14 11:52:29;;;;;;;21.65;6.47;;;;;;;;;;5020297;28;20041;-63
2022/05/14 11:55:05;;;;;;;23.67;6.70;;;;;;;;;;5014708;28;20065;-63
2022/05/14 11:57:35;;;;;;;19.90;5.40;;;;;;;;;;5016445;28;20041;-63
2022/05/14 12:00:06;;;;;;;22.67;5.50;;;;;;;;;;5014407;28;20054;-63
2022/05/14 12:02:37;;;;;;;21.55;6.43;;;;;;;;;;5018063;28;20046;-63
2022/05/14 12:05:05;;;;;;;22.40;6.45;;;;;;;;;;5018267;28;20038;-63
2022/05/14 12:07:41;;;;;;;25.05;6.65;;;;;;;;;;5017478;28;20091;-63
2022/05/14 12:10:13;;;;;;;27.58;6.63;;;;;;;;;;5008665;28;20040;-63
2022/05/14 12:12:40;;;;;;;19.85;6.07;;;;;;;;;;5019437;28;20128;-63
2022/05/14 12:15:09;;;;;;;17.77;5.30;;;;;;;;;;5019291;28;20074;-63
2022/05/14 12:17:36;;;;;;;22.67;6.85;;;;;;;;;;5009945;28;20049;-63
2022/05/14 12:20:03;;;;;;;22.00;6.10;;;;;;;;;;5014843;28;20088;-63
2022/05/14 12:22:30;;;;;;;20.27;5.88;;;;;;;;;;5016928;28;20120;-63
2022/05/14 12:24:58;;;;;;;26.48;6.57;;;;;;;;;;5027449;28;20465;-63
2022/05/14 12:27:24;;;;;;;23.63;6.15;;;;;;;;;;5021291;28;20118;-63
2022/05/14 12:29:53;;;;;;;22.02;6.13;;;;;;;;;;5008785;28;20127;-63
2022/05/14 12:35:17;;;;;;;24.65;5.82;;;;;;;;;;5019963;28;20193;-63
2022/05/14 12:37:43;;;;;;;26.52;6.63;;;;;;;;;;5019151;28;20048;-63
2022/05/14 12:40:18;;;;;;;21.70;5.90;;;;;;;;;;5016918;28;20048;-63
2022/05/14 12:42:44;;;;;;;19.73;5.85;;;;;;;;;;5016617;28;20077;-63
2022/05/14 12:45:11;;;;;;;19.52;6.22;;;;;;;;;;5018958;28;20456;-63
2022/05/14 12:47:38;;;;;;;20.00;5.40;;;;;;;;;;5021221;28;20401;-63
2022/05/14 12:50:15;;;;;;;23.75;7.07;;;;;;;;;;5019542;28;20171;-63
2022/05/14 12:52:51;;;;;;;24.63;6.95;;;;;;;;;;5019133;28;20057;-63
2022/05/14 12:55:19;;;;;;;25.90;6.15;;;;;;;;;;4997768;28;20042;-63
2022/05/14 12:57:47;;;;;;;23.00;6.80;;;;;;;;;;5013721;28;20134;-62
2022/05/14 13:00:15;;;;;;;25.48;7.32;;;;;;;;;;5004816;28;20052;-63
2022/05/14 13:02:44;;;;;;;22.10;6.30;;;;;;;;;;5015903;28;20042;-63
2022/05/14 13:05:13;;;;;;;21.95;5.93;;;;;;;;;;5014718;28;20045;-63
2022/05/14 13:07:48;;;;;;;24.33;6.50;;;;;;;;;;5012744;28;20038;-63
2022/05/14 13:10:17;;;;;;;20.88;5.80;;;;;;;;;;5014362;28;20124;-63
2022/05/14 13:12:47;;;;;;;22.08;6.65;;;;;;;;;;5005313;28;20470;-63
2022/05/14 13:15:13;;;;;;;21.13;5.07;;;;;;;;;;5013640;28;20049;-63
2022/05/14 13:17:40;;;;;;;28.23;6.30;;;;;;;;;;5016424;28;20053;-63
2022/05/14 13:20:08;;;;;;;20.00;5.95;;;;;;;;;;5015920;28;20042;-63
2022/05/14 13:22:37;;;;;;;23.55;6.40;;;;;;;;;;5017607;28;20406;-63
2022/05/14 13:25:24;;;;;;;20.85;5.68;;;;;;;;;;4996327;28;20504;-63
2022/05/14 13:27:51;;;;;;;21.95;5.60;;;;;;;;;;5012502;28;20128;-63
2022/05/14 13:30:19;;;;;;;19.70;5.75;;;;;;;;;;5013855;28;20502;-63
2022/05/14 13:32:45;;;;;;;22.15;6.65;;;;;;;;;;5018783;28;20141;-63
2022/05/14 13:38:07;;;;;;;21.20;5.47;;;;;;;;;;5012629;28;20085;-63
2022/05/14 13:40:39;;;;;;;24.27;6.27;;;;;;;;;;5018412;28;20046;-63
2022/05/14 13:43:15;;;;;;;22.20;6.18;;;;;;;;;;5012397;28;20045;-63
2022/05/14 13:45:46;;;;;;;21.15;6.10;;;;;;;;;;5011777;28;20064;-63
2022/05/14 13:48:14;;;;;;;24.65;5.97;;;;;;;;;;5014932;28;20073;-63
2022/05/14 13:50:41;;;;;;;20.75;5.78;;;;;;;;;;5022043;28;20081;-63
2022/05/14 13:53:20;;;;;;;22.00;5.47;;;;;;;;;;5001667;28;20116;-63
2022/05/14 13:55:46;;;;;;;20.00;5.72;;;;;;;;;;5017083;28;20090;-63
2022/05/14 13:58:13;;;;;;;22.73;6.22;;;;;;;;;;5013542;28;20053;-63
2022/05/14 14:00:50;;;;;;;19.23;5.68;;;;;;;;;;5020798;28;20520;-63
2022/05/14 14:03:17;;;;;;;23.45;6.07;;;;;;;;;;5016737;28;20048;-62
2022/05/14 14:05:46;;;;;;;23.27;5.82;;;;;;;;;;5017005;28;20060;-63
2022/05/14 14:08:13;;;;;;;20.63;5.75;;;;;;;;;;5013200;28;20121;-63
2022/05/14 14:10:39;;;;;;;24.25;6.15;;;;;;;;;;5011920;28;20466;-63
2022/05/14 14:13:07;;;;;;;16.02;4.72;;;;;;;;;;5017018;28;20124;-63
2022/05/14 14:15:35;;;;;;;22.90;6.25;;;;;;;;;;5014952;28;20093;-63
2022/05/14 14:18:02;;;;;;;19.23;5.38;;;;;;;;;;5015484;28;20050;-63
2022/05/14 14:20:30;;;;;;;19.60;4.95;;;;;;;;;;5017965;28;20045;-63
2022/05/14 14:23:00;;;;;;;18.60;4.88;;;;;;;;;;5023264;28;20097;-63
2022/05/14 14:25:29;;;;;;;18.80;5.53;;;;;;;;;;5023022;28;20104;-63
2022/05/14 14:27:55;;;;;;;21.35;5.78;;;;;;;;;;5017502;28;20224;-63
2022/05/14 14:30:22;;;;;;;19.85;5.90;;;;;;;;;;5016102;28;20045;-63
2022/05/14 14:32:48;;;;;;;19.02;5.43;;;;;;;;;;5016509;28;20152;-62
2022/05/14 14:35:15;;;;;;;23.23;6.60;;;;;;;;;;5018905;28;20064;-62
2022/05/14 14:37:41;;;;;;;20.02;5.88;;;;;;;;;;5015587;28;20140;-62
2022/05/14 14:40:10;;;;;;;27.30;6.15;;;;;;;;;;5017843;28;20042;-63
2022/05/14 14:42:36;;;;;;;23.30;5.68;;;;;;;;;;5014414;28;20057;-63
2022/05/14 14:45:03;;;;;;;19.83;5.35;;;;;;;;;;5016820;28;20041;-63
2022/05/14 14:47:30;;;;;;;21.70;6.03;;;;;;;;;;5014005;28;20058;-63
2022/05/14 14:49:58;;;;;;;18.92;5.55;;;;;;;;;;5017262;28;20042;-63
2022/05/14 14:52:25;;;;;;;15.93;4.88;;;;;;;;;;5012261;28;20452;-63
2022/05/14 14:54:51;;;;;;;27.88;5.35;;;;;;;;;;5011537;28;20048;-63
2022/05/14 14:57:17;;;;;;;15.90;4.75;;;;;;;;;;5014530;28;20350;-63
2022/05/14 14:59:43;;;;;;;21.05;4.95;;;;;;;;;;5015678;28;20459;-63